createdAt,value
2023-02-16T00:01:38.756Z,99.90
2023-02-16T00:04:12.951Z,99.90
2023-02-16T00:06:39.618Z,99.90
2023-02-16T00:09:06.291Z,99.90
2023-02-16T00:11:52.727Z,99.90
2023-02-16T00:14:22.598Z,99.90
2023-02-16T00:16:49.917Z,99.90
2023-02-16T00:19:18.032Z,99.90
2023-02-16T00:21:45.022Z,99.90
2023-02-16T00:24:11.733Z,99.90
2023-02-16T00:26:38.430Z,99.90
2023-02-16T00:29:05.117Z,99.90
2023-02-16T00:31:31.890Z,99.90
2023-02-16T00:33:59.412Z,99.90
2023-02-16T00:36:26.101Z,99.90
2023-02-16T00:38:52.854Z,99.90
2023-02-16T00:41:43.011Z,99.90
2023-02-16T00:44:20.957Z,99.90
2023-02-16T00:46:48.129Z,99.90
2023-02-16T00:49:15.826Z,99.90
2023-02-16T00:51:42.871Z,99.90
2023-02-16T00:54:09.701Z,99.90
2023-02-16T00:56:36.544Z,99.90
2023-02-16T00:59:05.603Z,99.90
2023-02-16T01:01:33.198Z,99.90
2023-02-16T01:04:01.305Z,99.90
2023-02-16T01:06:46.637Z,99.90
2023-02-16T01:09:33.326Z,99.90
2023-02-16T01:12:00.056Z,99.90
2023-02-16T01:14:26.749Z,99.90
2023-02-16T01:16:53.431Z,99.90
2023-02-16T01:19:20.198Z,99.90
2023-02-16T01:21:46.854Z,99.90
2023-02-16T01:24:13.577Z,99.90
2023-02-16T01:26:42.280Z,99.90
2023-02-16T01:29:14.129Z,99.90
2023-02-16T01:31:40.931Z,99.90
2023-02-16T01:34:07.850Z,99.90
2023-02-16T01:36:36.564Z,99.90
2023-02-16T01:39:03.809Z,99.90
2023-02-16T01:41:36.670Z,99.90
2023-02-16T01:44:05.702Z,99.90
2023-02-16T01:46:32.474Z,99.90
2023-02-16T01:48:59.999Z,99.90
2023-02-16T01:51:28.398Z,99.90
2023-02-16T01:53:58.700Z,99.90
2023-02-16T01:56:34.020Z,99.90
2023-02-16T01:59:03.654Z,99.90
2023-02-16T02:01:38.153Z,99.90
2023-02-16T02:04:29.232Z,99.90
2023-02-16T02:06:56.006Z,99.90
2023-02-16T02:09:31.254Z,99.90
2023-02-16T02:12:03.496Z,99.90
2023-02-16T02:14:32.746Z,99.90
2023-02-16T02:17:01.084Z,99.90
2023-02-16T02:19:27.865Z,99.90
2023-02-16T02:22:31.536Z,99.90
2023-02-16T02:25:16.805Z,99.90
2023-02-16T02:27:43.440Z,99.90
2023-02-16T02:30:13.149Z,99.90
2023-02-16T02:32:42.880Z,99.90
2023-02-16T02:35:18.732Z,99.90
2023-02-16T02:37:49.914Z,99.90
2023-02-16T02:40:22.157Z,99.90
2023-02-16T02:43:07.724Z,99.90
2023-02-16T02:45:36.766Z,99.90
2023-02-16T02:48:04.358Z,99.90
2023-02-16T02:50:34.488Z,99.90
2023-02-16T02:53:03.527Z,99.90
2023-02-16T02:55:50.294Z,99.90
2023-02-16T02:58:36.395Z,99.90
2023-02-16T03:01:03.846Z,99.90
2023-02-16T03:03:35.221Z,99.90
2023-02-16T03:06:05.275Z,99.90
2023-02-16T03:08:33.636Z,99.90
2023-02-16T03:11:25.124Z,99.90
2023-02-16T03:13:55.824Z,99.90
2023-02-16T03:16:25.953Z,99.90
2023-02-16T03:19:11.296Z,99.90
2023-02-16T03:21:56.966Z,99.90
2023-02-16T03:24:44.754Z,99.90
2023-02-16T03:27:30.644Z,99.90
2023-02-16T03:29:57.777Z,99.90
2023-02-16T03:32:24.520Z,99.90
2023-02-16T03:34:51.311Z,99.90
2023-02-16T03:37:18.142Z,99.90
2023-02-16T03:40:03.514Z,99.90
2023-02-16T03:42:30.171Z,99.90
2023-02-16T03:44:56.844Z,99.90
2023-02-16T03:47:23.527Z,99.90
2023-02-16T03:49:50.186Z,99.90
2023-02-16T03:52:16.870Z,99.90
2023-02-16T03:54:43.572Z,99.90
2023-02-16T03:57:10.313Z,99.90
2023-02-16T03:59:37.053Z,99.90
2023-02-16T04:02:03.791Z,99.90
2023-02-16T04:04:30.613Z,99.90
2023-02-16T04:06:57.318Z,99.90
2023-02-16T04:09:24.115Z,99.90
2023-02-16T04:12:09.461Z,99.90
2023-02-16T04:14:36.213Z,99.90
2023-02-16T04:17:04.193Z,99.90
2023-02-16T04:19:30.878Z,99.90
2023-02-16T04:21:57.551Z,99.90
2023-02-16T04:24:24.225Z,99.90
2023-02-16T04:26:51.107Z,99.90
2023-02-16T04:29:17.759Z,99.90
2023-02-16T04:31:44.670Z,99.90
2023-02-16T04:34:11.374Z,99.90
2023-02-16T04:36:38.128Z,99.90
2023-02-16T04:39:04.828Z,99.90
2023-02-16T04:41:31.487Z,99.90
2023-02-16T04:43:58.195Z,99.90
2023-02-16T04:46:25.276Z,99.90
2023-02-16T04:48:54.043Z,99.90
2023-02-16T04:51:20.776Z,99.90
2023-02-16T04:53:47.607Z,99.90
2023-02-16T04:56:14.428Z,99.90
2023-02-16T04:58:41.081Z,99.90
2023-02-16T05:01:08.210Z,99.90
2023-02-16T05:03:35.419Z,99.90
2023-02-16T05:06:02.142Z,99.90
2023-02-16T05:08:29.304Z,99.90
2023-02-16T05:11:14.670Z,99.90
2023-02-16T05:13:59.825Z,99.90
2023-02-16T05:16:26.550Z,99.90
2023-02-16T05:18:53.256Z,99.90
2023-02-16T05:21:32.297Z,99.90
2023-02-16T05:23:58.939Z,99.90
2023-02-16T05:26:25.611Z,99.90
2023-02-16T05:28:52.330Z,99.90
2023-02-16T05:31:19.078Z,99.90
2023-02-16T05:33:45.950Z,99.90
2023-02-16T05:36:12.608Z,99.90
2023-02-16T05:38:39.410Z,99.90
2023-02-16T05:41:06.185Z,99.90
2023-02-16T05:43:32.936Z,99.90
2023-02-16T05:45:59.713Z,99.90
2023-02-16T05:48:26.396Z,99.90
2023-02-16T05:50:56.266Z,99.90
2023-02-16T05:53:22.948Z,99.90
2023-02-16T05:55:49.706Z,99.90
2023-02-16T05:58:16.422Z,99.90
2023-02-16T06:00:43.513Z,99.90
2023-02-16T06:03:10.195Z,99.90
2023-02-16T06:05:37.547Z,99.90
2023-02-16T06:08:04.292Z,99.90
2023-02-16T06:10:30.974Z,99.90
2023-02-16T06:12:57.869Z,99.90
2023-02-16T06:15:24.604Z,99.90
2023-02-16T06:17:51.311Z,99.90
2023-02-16T06:20:18.024Z,99.90
2023-02-16T06:22:44.751Z,99.90
2023-02-16T06:25:11.405Z,99.90
2023-02-16T06:27:38.075Z,99.90
2023-02-16T06:30:06.204Z,99.90
2023-02-16T06:32:33.592Z,99.90
2023-02-16T06:35:00.354Z,99.90
2023-02-16T06:37:27.004Z,99.90
2023-02-16T06:39:53.681Z,99.90
2023-02-16T06:42:20.341Z,99.90
2023-02-16T06:44:47.893Z,99.90
2023-02-16T06:47:14.574Z,99.90
2023-02-16T06:49:41.324Z,99.90
2023-02-16T06:52:08.039Z,99.90
2023-02-16T06:54:34.709Z,99.90
2023-02-16T06:57:01.378Z,99.90
2023-02-16T06:59:28.017Z,99.90
2023-02-16T07:01:54.705Z,99.90
2023-02-16T07:04:21.478Z,99.90
2023-02-16T07:06:48.141Z,99.90
2023-02-16T07:09:14.816Z,99.90
2023-02-16T07:11:41.586Z,99.90
2023-02-16T07:14:08.283Z,99.90
2023-02-16T07:16:35.021Z,99.90
2023-02-16T07:19:01.738Z,99.90
2023-02-16T07:21:28.381Z,99.90
2023-02-16T07:23:55.044Z,99.90
2023-02-16T07:26:21.787Z,99.90
2023-02-16T07:28:48.543Z,99.90
2023-02-16T07:31:16.017Z,99.90
2023-02-16T07:33:43.080Z,99.90
2023-02-16T07:36:10.468Z,99.90
2023-02-16T07:38:37.614Z,99.90
2023-02-16T07:41:07.857Z,99.90
2023-02-16T07:43:36.035Z,99.90
2023-02-16T07:46:02.967Z,99.90
2023-02-16T07:48:29.803Z,99.90
2023-02-16T07:50:56.548Z,99.90
2023-02-16T07:53:23.569Z,99.90
2023-02-16T07:55:50.294Z,99.90
2023-02-16T07:58:27.741Z,99.90
2023-02-16T08:00:55.744Z,99.90
2023-02-16T08:03:23.259Z,99.90
2023-02-16T08:05:50.078Z,99.90
2023-02-16T08:08:16.943Z,99.90
2023-02-16T08:10:43.672Z,99.90
2023-02-16T08:13:10.530Z,99.90
2023-02-16T08:15:37.174Z,99.90
2023-02-16T08:18:03.926Z,99.90
2023-02-16T08:20:46.033Z,99.90
2023-02-16T08:23:17.759Z,99.90
2023-02-16T08:25:44.415Z,99.90
2023-02-16T08:28:15.100Z,99.90
2023-02-16T08:30:42.902Z,99.90
2023-02-16T08:33:13.477Z,99.90
2023-02-16T08:35:40.876Z,99.90
2023-02-16T08:38:09.164Z,99.90
2023-02-16T08:40:36.946Z,99.90
2023-02-16T08:43:07.067Z,99.90
2023-02-16T08:45:33.844Z,99.90
2023-02-16T08:48:02.369Z,99.90
2023-02-16T08:50:30.184Z,99.90
2023-02-16T08:52:58.334Z,99.90
2023-02-16T08:55:30.839Z,99.90
2023-02-16T08:57:58.848Z,99.90
2023-02-16T09:00:34.598Z,99.90
2023-02-16T09:03:04.516Z,99.90
2023-02-16T09:05:31.461Z,99.90
2023-02-16T09:07:59.137Z,99.90
2023-02-16T09:10:26.474Z,99.90
2023-02-16T09:12:56.144Z,99.90
2023-02-16T09:15:23.149Z,99.90
2023-02-16T09:17:50.002Z,99.90
2023-02-16T09:20:20.194Z,99.90
2023-02-16T09:22:48.642Z,99.90
2023-02-16T09:25:16.473Z,99.90
2023-02-16T09:27:43.424Z,99.90
2023-02-16T09:30:10.390Z,99.90
2023-02-16T09:32:37.233Z,99.90
2023-02-16T09:35:05.125Z,99.90
2023-02-16T09:37:32.265Z,99.90
2023-02-16T09:39:58.929Z,99.90
2023-02-16T09:42:30.933Z,99.90
2023-02-16T09:45:04.216Z,99.90
2023-02-16T09:47:33.740Z,99.90
2023-02-16T09:50:03.902Z,99.90
2023-02-16T09:52:40.283Z,99.90
2023-02-16T09:55:09.008Z,99.90
2023-02-16T09:57:42.033Z,99.90
2023-02-16T10:00:23.426Z,99.90
2023-02-16T10:02:56.163Z,99.90
2023-02-16T10:05:29.678Z,99.90
2023-02-16T10:08:00.013Z,99.90
2023-02-16T10:10:42.954Z,99.90
2023-02-16T10:13:19.145Z,99.90
2023-02-16T10:15:46.851Z,99.90
2023-02-16T10:18:22.884Z,99.30
2023-02-16T10:20:52.351Z,99.60
2023-02-16T10:23:22.502Z,97.60
2023-02-16T10:26:08.857Z,97.30
2023-02-16T10:28:49.236Z,97.50
2023-02-16T10:31:19.103Z,96.90
2023-02-16T10:34:03.270Z,98.00
2023-02-16T10:36:33.034Z,95.60
2023-02-16T10:39:08.223Z,95.30
2023-02-16T10:41:37.506Z,95.10
2023-02-16T10:44:21.306Z,94.90
2023-02-16T10:46:50.906Z,96.70
2023-02-16T10:49:18.096Z,94.10
2023-02-16T10:51:48.992Z,95.50
2023-02-16T10:54:27.127Z,95.00
2023-02-16T10:56:57.353Z,93.80
2023-02-16T10:59:26.431Z,92.70
2023-02-16T11:01:54.200Z,93.70
2023-02-16T11:04:30.007Z,93.90
2023-02-16T11:07:03.318Z,92.80
2023-02-16T11:09:30.489Z,92.40
2023-02-16T11:11:57.146Z,92.00
2023-02-16T11:14:25.292Z,91.80
2023-02-16T11:17:04.060Z,92.00
2023-02-16T11:19:33.731Z,92.40
2023-02-16T11:22:00.691Z,91.30
2023-02-16T11:24:27.798Z,91.00
2023-02-16T11:27:05.637Z,91.40
2023-02-16T11:29:33.175Z,90.90
2023-02-16T11:32:04.898Z,90.20
2023-02-16T11:34:42.466Z,89.90
2023-02-16T11:37:28.346Z,87.80
2023-02-16T11:39:57.710Z,90.20
2023-02-16T11:42:35.202Z,88.30
2023-02-16T11:45:03.810Z,86.90
2023-02-16T11:47:38.265Z,85.70
2023-02-16T11:50:18.908Z,85.20
2023-02-16T11:52:50.155Z,86.50
2023-02-16T11:55:27.052Z,86.80
2023-02-16T11:57:54.252Z,87.50
2023-02-16T12:00:25.022Z,87.80
2023-02-16T12:03:01.093Z,83.20
2023-02-16T12:05:47.314Z,82.60
2023-02-16T12:08:16.969Z,81.80
2023-02-16T12:10:58.815Z,82.90
2023-02-16T12:13:33.468Z,81.30
2023-02-16T12:16:12.683Z,79.70
2023-02-16T12:18:39.559Z,77.10
2023-02-16T12:21:06.941Z,75.80
2023-02-16T12:23:49.628Z,78.90
2023-02-16T12:26:31.535Z,76.20
2023-02-16T12:28:58.247Z,78.30
2023-02-16T12:31:47.540Z,77.40
2023-02-16T12:34:36.579Z,77.70
2023-02-16T12:37:22.589Z,75.40
2023-02-16T12:39:56.590Z,74.60
2023-02-16T12:42:29.081Z,73.00
2023-02-16T12:44:58.880Z,73.10
2023-02-16T12:47:32.412Z,71.20
2023-02-16T12:50:01.938Z,73.10
2023-02-16T12:52:40.295Z,71.20
2023-02-16T12:55:07.034Z,70.40
2023-02-16T12:57:34.854Z,70.20
2023-02-16T13:00:09.504Z,69.80
2023-02-16T13:02:40.951Z,68.80
2023-02-16T13:05:12.467Z,69.00
2023-02-16T13:07:40.334Z,70.50
2023-02-16T13:10:22.214Z,68.70
2023-02-16T13:12:55.309Z,69.20
2023-02-16T13:15:27.162Z,69.40
2023-02-16T13:18:01.039Z,69.10
2023-02-16T13:20:27.905Z,67.90
2023-02-16T13:22:57.750Z,68.50
2023-02-16T13:25:43.476Z,69.10
2023-02-16T13:28:29.170Z,67.90
2023-02-16T13:31:29.353Z,67.50
2023-02-16T13:34:05.609Z,68.10
2023-02-16T13:36:51.009Z,68.00
2023-02-16T13:39:20.769Z,67.00
2023-02-16T13:42:13.285Z,65.70
2023-02-16T13:44:51.682Z,67.40
2023-02-16T13:47:21.800Z,66.10
2023-02-16T13:49:50.403Z,66.50
2023-02-16T13:52:49.580Z,65.00
2023-02-16T13:55:24.016Z,65.70
2023-02-16T13:57:55.310Z,65.70
2023-02-16T14:00:42.262Z,66.40
2023-02-16T14:03:19.602Z,65.90
2023-02-16T14:05:51.244Z,64.50
2023-02-16T14:08:19.511Z,62.80
2023-02-16T14:10:55.958Z,63.10
2023-02-16T14:13:24.528Z,64.00
2023-02-16T14:15:52.231Z,64.60
2023-02-16T14:18:28.110Z,64.30
2023-02-16T14:21:05.310Z,65.20
2023-02-16T14:23:34.673Z,65.80
2023-02-16T14:26:03.301Z,66.00
2023-02-16T14:28:30.172Z,64.40
2023-02-16T14:30:58.849Z,63.50
2023-02-16T14:33:30.562Z,65.80
2023-02-16T14:36:00.727Z,68.40
2023-02-16T14:38:37.753Z,67.40
2023-02-16T14:41:06.446Z,67.90
2023-02-16T14:43:47.090Z,69.30
2023-02-16T14:46:23.000Z,69.50
2023-02-16T14:48:55.854Z,71.30
2023-02-16T14:51:34.737Z,73.10
2023-02-16T14:54:10.659Z,71.50
2023-02-16T14:56:40.344Z,69.60
2023-02-16T14:59:14.434Z,71.80
2023-02-16T15:01:43.028Z,73.20
2023-02-16T15:04:10.974Z,74.00
2023-02-16T15:06:47.453Z,75.50
2023-02-16T15:09:20.680Z,76.20
2023-02-16T15:12:13.668Z,76.50
2023-02-16T15:14:45.199Z,78.00
2023-02-16T15:17:38.121Z,78.80
2023-02-16T15:20:17.761Z,79.50
2023-02-16T15:22:51.699Z,80.80
2023-02-16T15:25:25.236Z,81.60
2023-02-16T15:27:52.750Z,83.10
2023-02-16T15:30:20.041Z,83.30
2023-02-16T15:32:52.293Z,84.40
2023-02-16T15:35:23.846Z,85.20
2023-02-16T15:37:58.929Z,86.10
2023-02-16T15:40:26.949Z,87.10
2023-02-16T15:42:54.477Z,88.30
2023-02-16T15:45:47.282Z,88.50
2023-02-16T15:48:14.518Z,88.80
2023-02-16T15:50:41.893Z,89.70
2023-02-16T15:53:11.673Z,90.40
2023-02-16T15:55:42.490Z,91.10
2023-02-16T15:58:09.359Z,91.30
2023-02-16T16:00:36.056Z,91.30
2023-02-16T16:03:02.709Z,91.50
2023-02-16T16:05:33.008Z,91.50
2023-02-16T16:08:00.384Z,92.10
2023-02-16T16:10:37.370Z,92.00
2023-02-16T16:13:12.052Z,92.80
2023-02-16T16:15:40.769Z,93.50
2023-02-16T16:18:27.382Z,93.40
2023-02-16T16:21:00.152Z,93.20
2023-02-16T16:23:27.130Z,92.40
2023-02-16T16:25:54.111Z,93.90
2023-02-16T16:28:29.759Z,94.60
2023-02-16T16:31:09.515Z,94.20
2023-02-16T16:33:55.210Z,94.20
2023-02-16T16:36:29.210Z,94.60
2023-02-16T16:39:14.899Z,94.50
2023-02-16T16:41:41.984Z,95.60
2023-02-16T16:44:13.352Z,95.20
2023-02-16T16:46:40.066Z,95.10
2023-02-16T16:49:12.315Z,95.00
2023-02-16T16:51:42.756Z,95.00
2023-02-16T16:54:30.323Z,94.60
2023-02-16T16:56:57.050Z,94.80
2023-02-16T16:59:23.740Z,95.20
2023-02-16T17:01:50.462Z,96.30
2023-02-16T17:04:17.250Z,96.70
2023-02-16T17:06:43.931Z,96.60
2023-02-16T17:09:10.609Z,97.50
2023-02-16T17:11:37.978Z,98.10
2023-02-16T17:14:09.307Z,97.70
2023-02-16T17:16:41.072Z,97.20
2023-02-16T17:19:11.000Z,97.90
2023-02-16T17:21:38.223Z,97.70
2023-02-16T17:24:07.580Z,98.40
2023-02-16T17:26:34.352Z,99.30
2023-02-16T17:29:01.052Z,99.00
2023-02-16T17:31:31.215Z,98.50
2023-02-16T17:34:01.124Z,99.10
2023-02-16T17:36:34.849Z,97.80
2023-02-16T17:39:01.816Z,98.70
2023-02-16T17:41:29.327Z,99.90
2023-02-16T17:43:56.059Z,99.60
2023-02-16T17:46:23.050Z,99.40
2023-02-16T17:48:50.731Z,99.50
2023-02-16T17:51:18.727Z,99.10
2023-02-16T17:53:45.421Z,98.90
2023-02-16T17:56:16.576Z,99.90
2023-02-16T17:58:43.422Z,99.20
2023-02-16T18:01:14.287Z,99.90
2023-02-16T18:03:41.324Z,99.60
2023-02-16T18:06:08.355Z,99.90
2023-02-16T18:08:35.098Z,99.90
2023-02-16T18:11:02.048Z,99.90
2023-02-16T18:13:29.401Z,99.90
2023-02-16T18:15:56.509Z,99.90
2023-02-16T18:18:23.256Z,99.90
2023-02-16T18:20:50.042Z,99.90
2023-02-16T18:23:17.215Z,99.90
2023-02-16T18:25:44.224Z,99.90
2023-02-16T18:28:15.058Z,99.90
2023-02-16T18:30:41.827Z,99.90
2023-02-16T18:33:08.514Z,99.90
2023-02-16T18:35:35.218Z,99.90
2023-02-16T18:38:01.910Z,99.90
2023-02-16T18:40:28.647Z,99.90
2023-02-16T18:42:56.771Z,99.90
2023-02-16T18:45:23.439Z,99.90
2023-02-16T18:47:50.128Z,99.90
2023-02-16T18:50:16.947Z,99.90
2023-02-16T18:52:44.918Z,99.90
2023-02-16T18:55:12.584Z,99.90
2023-02-16T18:57:39.240Z,99.90
2023-02-16T19:00:06.779Z,99.90
2023-02-16T19:02:33.469Z,99.90
2023-02-16T19:05:00.276Z,99.90
2023-02-16T19:07:27.054Z,99.90
2023-02-16T19:09:53.770Z,99.90
2023-02-16T19:12:20.486Z,99.90
2023-02-16T19:14:47.206Z,99.90
2023-02-16T19:17:13.895Z,99.90
2023-02-16T19:19:40.585Z,99.90
2023-02-16T19:22:07.249Z,99.90
2023-02-16T19:24:34.914Z,99.90
2023-02-16T19:27:01.930Z,99.90
2023-02-16T19:29:28.566Z,99.90
2023-02-16T19:31:55.329Z,99.90
2023-02-16T19:34:22.214Z,99.90
2023-02-16T19:36:48.915Z,99.90
2023-02-16T19:39:15.572Z,99.90
2023-02-16T19:41:43.717Z,99.90
2023-02-16T19:44:13.896Z,99.90
2023-02-16T19:46:41.349Z,99.90
2023-02-16T19:49:08.101Z,99.90
2023-02-16T19:51:34.810Z,99.90
2023-02-16T19:54:01.516Z,99.90
2023-02-16T19:56:28.141Z,99.90
2023-02-16T19:58:56.514Z,99.90
2023-02-16T20:01:24.651Z,99.90
2023-02-16T20:03:51.730Z,99.90
2023-02-16T20:06:18.364Z,99.90
2023-02-16T20:08:45.922Z,99.90
2023-02-16T20:11:13.057Z,99.90
2023-02-16T20:13:39.702Z,99.90
2023-02-16T20:16:07.702Z,99.90
2023-02-16T20:18:35.036Z,99.90
2023-02-16T20:21:02.570Z,99.90
2023-02-16T20:23:29.886Z,99.90
2023-02-16T20:25:56.977Z,99.90
2023-02-16T20:28:24.890Z,99.90
2023-02-16T20:30:52.317Z,99.90
2023-02-16T20:33:19.664Z,99.90
2023-02-16T20:35:46.872Z,99.90
2023-02-16T20:38:13.968Z,99.90
2023-02-16T20:40:40.922Z,99.90
2023-02-16T20:43:07.676Z,99.90
2023-02-16T20:45:35.291Z,99.90
2023-02-16T20:48:04.075Z,99.90
2023-02-16T20:50:30.810Z,99.90
2023-02-16T20:52:57.506Z,99.90
2023-02-16T20:55:24.173Z,99.90
2023-02-16T20:57:50.882Z,99.90
2023-02-16T21:00:20.191Z,99.90
2023-02-16T21:02:47.061Z,99.90
2023-02-16T21:05:13.787Z,99.90
2023-02-16T21:07:40.448Z,99.90
2023-02-16T21:10:08.435Z,99.90
2023-02-16T21:12:35.079Z,99.90
2023-02-16T21:15:01.771Z,99.90
2023-02-16T21:17:28.404Z,99.90
2023-02-16T21:19:55.038Z,99.90
2023-02-16T21:22:21.735Z,99.90
2023-02-16T21:24:48.383Z,99.90
2023-02-16T21:27:15.033Z,99.90
2023-02-16T21:29:41.706Z,99.90
2023-02-16T21:32:08.683Z,99.90
2023-02-16T21:34:35.394Z,99.90
2023-02-16T21:37:02.027Z,99.90
2023-02-16T21:39:47.081Z,99.90
2023-02-16T21:42:13.887Z,99.90
2023-02-16T21:44:43.584Z,99.90
2023-02-16T21:47:32.512Z,99.90
2023-02-16T21:49:59.282Z,99.90
2023-02-16T21:52:26.227Z,99.90
2023-02-16T21:55:11.589Z,99.90
2023-02-16T21:57:38.220Z,99.90
2023-02-16T22:00:06.181Z,99.90
2023-02-16T22:02:33.531Z,99.90
2023-02-16T22:05:00.166Z,99.90
2023-02-16T22:07:26.865Z,99.90
2023-02-16T22:09:53.521Z,99.90
2023-02-16T22:12:20.169Z,99.90
2023-02-16T22:14:46.842Z,99.90
2023-02-16T22:17:13.473Z,99.90
2023-02-16T22:19:40.171Z,99.90
2023-02-16T22:22:06.808Z,99.90
2023-02-16T22:24:33.481Z,99.90
2023-02-16T22:27:00.168Z,99.90
2023-02-16T22:29:26.818Z,99.90
2023-02-16T22:31:53.482Z,99.90
2023-02-16T22:34:21.832Z,99.90
2023-02-16T22:36:48.962Z,99.90
2023-02-16T22:39:16.137Z,99.90
2023-02-16T22:41:42.827Z,99.90
2023-02-16T22:44:10.540Z,99.90
2023-02-16T22:46:37.224Z,99.90
2023-02-16T22:49:04.016Z,99.90
2023-02-16T22:51:30.995Z,99.90
2023-02-16T22:53:58.320Z,99.90
2023-02-16T22:56:26.869Z,99.90
2023-02-16T22:58:56.478Z,99.90
2023-02-16T23:01:24.696Z,99.90
2023-02-16T23:03:53.512Z,99.90
2023-02-16T23:06:21.589Z,99.90
2023-02-16T23:08:52.053Z,99.90
2023-02-16T23:11:18.790Z,99.90
2023-02-16T23:13:45.891Z,99.90
2023-02-16T23:16:13.915Z,99.90
2023-02-16T23:18:41.076Z,99.90
2023-02-16T23:21:09.650Z,99.90
2023-02-16T23:23:36.812Z,99.90
2023-02-16T23:26:05.230Z,99.90
2023-02-16T23:28:32.158Z,99.90
2023-02-16T23:30:59.159Z,99.90
2023-02-16T23:33:25.860Z,99.90
2023-02-16T23:35:52.515Z,99.90
2023-02-16T23:38:19.194Z,99.90
2023-02-16T23:40:46.945Z,99.90
2023-02-16T23:43:13.653Z,99.90
2023-02-16T23:45:40.294Z,99.90
2023-02-16T23:48:06.950Z,99.90
2023-02-16T23:50:33.591Z,99.90
2023-02-16T23:53:00.266Z,99.90
2023-02-16T23:55:26.939Z,99.90
2023-02-16T23:57:53.600Z,99.90
